Impacts METAR Board
IDs:

KDFW - Dallas-Ft Worth Intl, TX, US

Updated at: 0100 UTC 28 May 2018
Potential Impact None Slight Moderate High
Time 27/13Z 27/14Z 27/15Z 27/16Z 27/17Z 27/18Z 27/19Z 27/20Z 27/21Z 27/22Z 27/23Z 28/00Z 28/01Z
Temp79 83 85 87 88 92 93 94 94 96 95 93 91
Dewpt73 73 72 72 71 71 68 68 67 66 67 64 67
Altim29.82 29.84 29.84 29.84 29.84 29.82 29.81 29.80 29.78 29.77 29.76 29.76 29.77
VIS10 10 10 10 10 10 10 10 10 10 10 10 10
CIG-- 300 300 -- -- 47 70 60 80 300 -- -- --
CoverFEWBKNBKNSCTSCTBKNBKNBKNBKNBKNSCTSCTFEW
FltCatVFRVFRVFRVFRVFRVFRVFRVFRVFRVFRVFRVFRVFR
WX--------------------------
WDir1001202002301501501401300012010090
WSpd6 5 5 3 3 6 6 7 3 4 9 7 10
WGst-- -- -- -- -- -- -- -- -- -- -- -- --
Raw hourly METARs
KDFW 271253Z 10006KT 10SM FEW100 FEW300 26/23 A2982 RMK AO2 SLP087 T02610228
KDFW 271353Z 12005KT 10SM FEW100 BKN300 28/23 A2984 RMK AO2 SLP094 T02830228
KDFW 271453Z 20005KT 10SM FEW100 BKN300 29/22 A2984 RMK AO2 SLP096 T02940222 51013
KDFW 271553Z 23003KT 10SM FEW100 SCT300 31/22 A2984 RMK AO2 SLP096 T03060222
KDFW 271653Z 15003KT 10SM SCT040 SCT300 31/22 A2984 RMK AO2 SLP096 T03110217
KDFW 271753Z 15006KT 10SM BKN047 33/22 A2982 RMK AO2 SLP089 T03330217 10333 20239 58007
KDFW 271853Z 14006KT 10SM FEW055 SCT065 BKN070 34/20 A2981 RMK AO2 SLP083 T03390200
KDFW 271953Z 13007KT 10SM BKN060 BKN075 34/20 A2980 RMK AO2 SLP079 T03440200
KDFW 272053Z VRB03KT 10SM SCT065 BKN080 34/19 A2978 RMK AO2 SLP076 T03440194 56013
KDFW 272153Z VRB04KT 10SM SCT070 SCT085 BKN300 36/19 A2977 RMK AO2 SLP071 T03560189
KDFW 272253Z 12009KT 080V160 10SM SCT065 SCT090 SCT300 35/19 A2976 RMK AO2 SLP067 T03500194
KDFW 272353Z 10007KT 10SM FEW065 FEW090 SCT300 34/18 A2976 RMK AO2 SLP067 T03390178 10356 20328 56008
KDFW 280053Z 09010KT 10SM FEW070 FEW300 33/19 A2977 RMK AO2 SLP071 T03280194



Page loaded:  01:37 UTC  |   06:37 PM Pacific  |   07:37 PM Mountain  |   08:37 PM Central  |   09:37 PM Eastern

 

ADVISORIES

FORECASTS

FORECASTS

OBSERVATIONS

USER TOOLS

ABOUT US